createdAt,value
2023-03-24T00:01:20.509Z,25.99
2023-03-24T00:04:09.773Z,25.93
2023-03-24T00:06:58.669Z,25.89
2023-03-24T00:09:48.899Z,25.92
2023-03-24T00:12:39.126Z,25.94
2023-03-24T00:15:28.740Z,25.96
2023-03-24T00:18:19.131Z,25.93
2023-03-24T00:21:10.849Z,25.96
2023-03-24T00:24:01.275Z,25.99
2023-03-24T00:26:51.863Z,25.92
2023-03-24T00:29:41.405Z,25.95
2023-03-24T00:32:33.385Z,25.96
2023-03-24T00:35:22.438Z,25.92
2023-03-24T00:38:11.216Z,25.93
2023-03-24T00:41:00.165Z,25.88
2023-03-24T00:43:51.283Z,25.94
2023-03-24T00:46:40.027Z,25.88
2023-03-24T00:49:43.225Z,26.00
2023-03-24T00:52:34.205Z,25.89
2023-03-24T00:55:23.336Z,25.99
2023-03-24T00:58:17.914Z,25.92
2023-03-24T01:01:09.010Z,25.93
2023-03-24T01:03:58.202Z,25.87
2023-03-24T01:06:47.152Z,25.82
2023-03-24T01:09:36.379Z,25.86
2023-03-24T01:12:25.830Z,25.83
2023-03-24T01:15:16.755Z,25.78
2023-03-24T01:18:12.189Z,25.82
2023-03-24T01:21:01.276Z,25.83
2023-03-24T01:23:50.089Z,25.79
2023-03-24T01:26:38.849Z,25.79
2023-03-24T01:29:27.722Z,25.84
2023-03-24T01:32:18.060Z,25.83
2023-03-24T01:35:08.636Z,25.86
2023-03-24T01:37:57.470Z,25.87
2023-03-24T01:40:47.892Z,25.96
2023-03-24T01:43:42.036Z,25.92
2023-03-24T01:46:33.394Z,25.84
2023-03-24T01:49:22.586Z,25.89
2023-03-24T01:52:20.171Z,25.92
2023-03-24T01:55:13.708Z,25.87
2023-03-24T01:58:04.115Z,25.89
2023-03-24T02:00:53.010Z,25.83
2023-03-24T02:03:42.175Z,25.81
2023-03-24T02:06:31.443Z,25.81
2023-03-24T02:09:21.627Z,25.82
2023-03-24T02:12:10.385Z,25.82
2023-03-24T02:14:59.323Z,25.82
2023-03-24T02:18:02.296Z,25.83
2023-03-24T02:21:27.814Z,25.89
2023-03-24T02:24:40.706Z,25.83
2023-03-24T02:27:51.697Z,25.87
2023-03-24T02:31:31.052Z,25.88
2023-03-24T02:34:47.684Z,25.89
2023-03-24T02:38:08.692Z,25.87
2023-03-24T02:41:03.417Z,25.81
2023-03-24T02:44:01.636Z,25.82
2023-03-24T02:46:58.048Z,25.83
2023-03-24T02:49:50.460Z,25.83
2023-03-24T02:52:44.815Z,25.88
2023-03-24T02:55:36.138Z,25.86
2023-03-24T02:58:33.694Z,25.83
2023-03-24T03:01:31.504Z,25.81
2023-03-24T03:04:23.285Z,25.80
2023-03-24T03:07:12.916Z,25.76
2023-03-24T03:10:05.033Z,25.76
2023-03-24T03:12:57.681Z,25.77
2023-03-24T03:15:51.368Z,25.81
2023-03-24T03:18:43.664Z,25.77
2023-03-24T03:21:36.911Z,25.77
2023-03-24T03:24:29.728Z,25.72
2023-03-24T03:27:20.814Z,25.75
2023-03-24T03:30:13.353Z,25.72
2023-03-24T03:33:10.457Z,25.75
2023-03-24T03:36:00.960Z,25.72
2023-03-24T03:38:55.986Z,25.71
2023-03-24T03:41:44.991Z,25.68
2023-03-24T03:44:33.738Z,25.69
2023-03-24T03:47:23.290Z,25.71
2023-03-24T03:50:13.622Z,25.66
2023-03-24T03:53:02.413Z,25.71
2023-03-24T03:55:52.281Z,25.71
2023-03-24T03:58:42.454Z,25.74
2023-03-24T04:01:34.241Z,25.76
2023-03-24T04:04:50.601Z,25.72
2023-03-24T04:08:09.633Z,25.74
2023-03-24T04:11:26.631Z,25.73
2023-03-24T04:14:39.576Z,25.72
2023-03-24T04:17:40.238Z,25.73
2023-03-24T04:20:34.764Z,25.76
2023-03-24T04:23:32.703Z,25.71
2023-03-24T04:26:30.916Z,25.74
2023-03-24T04:29:27.262Z,25.71
2023-03-24T04:32:21.894Z,25.75
2023-03-24T04:35:15.037Z,25.77
2023-03-24T04:38:07.578Z,25.80
2023-03-24T04:40:59.807Z,25.79
2023-03-24T04:43:50.242Z,25.81
2023-03-24T04:46:39.421Z,25.77
2023-03-24T04:49:29.014Z,25.73
2023-03-24T04:52:18.316Z,25.75
2023-03-24T04:55:26.433Z,25.71
2023-03-24T04:58:16.491Z,25.69
2023-03-24T05:01:05.988Z,25.72
2023-03-24T05:03:54.660Z,25.75
2023-03-24T05:06:47.746Z,25.73
2023-03-24T05:09:37.085Z,25.71
2023-03-24T05:12:26.212Z,25.64
2023-03-24T05:15:16.852Z,25.67
2023-03-24T05:18:07.047Z,25.66
2023-03-24T05:20:56.536Z,25.74
2023-03-24T05:23:47.889Z,25.79
2023-03-24T05:26:37.396Z,25.81
2023-03-24T05:29:29.765Z,25.83
2023-03-24T05:32:20.377Z,25.79
2023-03-24T05:35:10.124Z,25.79
2023-03-24T05:37:58.829Z,25.77
2023-03-24T05:40:47.528Z,25.87
2023-03-24T05:43:36.488Z,25.84
2023-03-24T05:46:26.680Z,25.84
2023-03-24T05:49:16.698Z,25.84
2023-03-24T05:52:05.989Z,25.87
2023-03-24T05:54:55.009Z,25.88
2023-03-24T05:57:43.909Z,25.91
2023-03-24T06:00:33.430Z,25.84
2023-03-24T06:03:22.323Z,25.78
2023-03-24T06:06:16.885Z,25.84
2023-03-24T06:09:06.880Z,25.75
2023-03-24T06:11:55.424Z,25.77
2023-03-24T06:14:45.492Z,25.77
2023-03-24T06:17:34.290Z,25.81
2023-03-24T06:20:23.176Z,25.81
2023-03-24T06:23:13.148Z,25.96
2023-03-24T06:26:02.326Z,25.95
2023-03-24T06:28:51.904Z,25.87
2023-03-24T06:31:40.770Z,25.82
2023-03-24T06:34:29.764Z,25.80
2023-03-24T06:37:18.815Z,25.76
2023-03-24T06:40:13.662Z,25.76
2023-03-24T06:43:02.552Z,25.82
2023-03-24T06:45:51.444Z,25.79
2023-03-24T06:48:40.193Z,25.81
2023-03-24T06:51:28.974Z,25.83
2023-03-24T06:54:17.614Z,25.88
2023-03-24T06:57:07.977Z,25.92
2023-03-24T06:59:57.046Z,25.92
2023-03-24T07:02:45.770Z,25.91
2023-03-24T07:05:39.550Z,25.99
2023-03-24T07:08:37.258Z,25.88
2023-03-24T07:11:27.346Z,25.87
2023-03-24T07:14:17.396Z,25.83
2023-03-24T07:17:06.526Z,25.81
2023-03-24T07:19:55.237Z,25.81
2023-03-24T07:22:44.135Z,25.83
2023-03-24T07:25:33.589Z,25.82
2023-03-24T07:28:22.342Z,25.82
2023-03-24T07:31:12.498Z,25.86
2023-03-24T07:34:02.164Z,25.87
2023-03-24T07:36:51.321Z,25.87
2023-03-24T07:39:39.906Z,25.84
2023-03-24T07:42:28.602Z,25.91
2023-03-24T07:45:17.955Z,25.94
2023-03-24T07:48:08.968Z,25.91
2023-03-24T07:50:58.189Z,25.95
2023-03-24T07:53:47.943Z,25.98
2023-03-24T07:56:36.698Z,25.99
2023-03-24T07:59:26.745Z,25.98
2023-03-24T08:02:19.767Z,25.91
2023-03-24T08:05:14.364Z,25.95
2023-03-24T08:08:03.805Z,25.93
2023-03-24T08:10:53.117Z,25.93
2023-03-24T08:13:42.062Z,25.92
2023-03-24T08:16:31.327Z,25.93
2023-03-24T08:19:20.221Z,25.93
2023-03-24T08:22:11.138Z,25.92
2023-03-24T08:25:00.715Z,25.87
2023-03-24T08:27:50.235Z,25.88
2023-03-24T08:30:45.242Z,25.94
2023-03-24T08:33:34.543Z,25.86
2023-03-24T08:36:26.574Z,25.94
2023-03-24T08:39:18.315Z,25.91
2023-03-24T08:42:07.636Z,25.95
2023-03-24T08:44:56.630Z,25.99
2023-03-24T08:47:45.631Z,25.99
2023-03-24T08:50:36.174Z,25.96
2023-03-24T08:53:25.416Z,25.98
2023-03-24T08:56:15.510Z,25.98
2023-03-24T08:59:05.313Z,25.95
2023-03-24T09:01:53.953Z,25.97
2023-03-24T09:04:43.344Z,25.97
2023-03-24T09:07:32.025Z,25.95
2023-03-24T09:10:22.625Z,25.93
2023-03-24T09:13:13.297Z,25.95
2023-03-24T09:16:04.191Z,25.92
2023-03-24T09:18:53.953Z,25.96
2023-03-24T09:21:43.071Z,25.93
2023-03-24T09:24:32.479Z,25.92
2023-03-24T09:27:23.413Z,25.93
2023-03-24T09:30:16.189Z,25.91
2023-03-24T09:33:05.761Z,25.94
2023-03-24T09:36:00.104Z,25.91
2023-03-24T09:38:49.259Z,25.91
2023-03-24T09:41:39.348Z,25.99
2023-03-24T09:44:31.238Z,25.89
2023-03-24T09:47:29.715Z,25.91
2023-03-24T09:50:23.498Z,25.93
2023-03-24T09:53:22.376Z,25.91
2023-03-24T09:56:15.435Z,25.93
2023-03-24T09:59:06.957Z,25.92
2023-03-24T10:01:55.718Z,25.93
2023-03-24T10:04:45.925Z,25.97
2023-03-24T10:07:36.226Z,25.99
2023-03-24T10:10:31.154Z,26.02
2023-03-24T10:13:22.473Z,26.00
2023-03-24T10:16:15.359Z,25.97
2023-03-24T10:19:14.615Z,25.92
2023-03-24T10:22:08.793Z,25.92
2023-03-24T10:25:00.476Z,25.95
2023-03-24T10:27:52.916Z,25.93
2023-03-24T10:30:45.328Z,25.94
2023-03-24T10:33:43.535Z,25.96
2023-03-24T10:36:32.511Z,25.99
2023-03-24T10:39:34.001Z,25.97
2023-03-24T10:42:27.867Z,25.92
2023-03-24T10:45:21.818Z,25.92
2023-03-24T10:48:10.513Z,25.95
2023-03-24T10:51:00.564Z,25.93
2023-03-24T10:53:50.697Z,25.97
2023-03-24T10:56:42.909Z,25.93
2023-03-24T10:59:33.191Z,25.95
2023-03-24T11:02:24.261Z,25.94
2023-03-24T11:05:17.759Z,25.96
2023-03-24T11:08:16.685Z,25.98
2023-03-24T11:11:16.321Z,25.95
2023-03-24T11:14:20.700Z,25.99
2023-03-24T11:17:15.337Z,25.99
2023-03-24T11:20:08.232Z,25.98
2023-03-24T11:22:59.858Z,26.00
2023-03-24T11:25:52.257Z,26.02
2023-03-24T11:28:42.279Z,26.00
2023-03-24T11:31:35.099Z,26.00
2023-03-24T11:34:25.374Z,25.99
2023-03-24T11:37:15.670Z,26.02
2023-03-24T11:40:18.211Z,26.02
2023-03-24T11:43:08.310Z,26.00
2023-03-24T11:46:01.956Z,25.99
2023-03-24T11:48:55.572Z,25.99
2023-03-24T11:51:46.219Z,26.04
2023-03-24T11:54:38.843Z,26.02
2023-03-24T11:57:46.163Z,26.00
2023-03-24T12:00:38.737Z,26.02
2023-03-24T12:04:01.176Z,26.01
2023-03-24T12:06:58.657Z,26.00
2023-03-24T12:09:52.200Z,26.00
2023-03-24T12:12:46.601Z,26.01
2023-03-24T12:15:41.534Z,26.02
2023-03-24T12:18:43.175Z,26.03
2023-03-24T12:21:45.848Z,26.03
2023-03-24T12:24:47.833Z,26.03
2023-03-24T12:27:42.581Z,26.06
2023-03-24T12:30:34.404Z,26.05
2023-03-24T12:33:33.896Z,26.01
2023-03-24T12:36:32.938Z,25.95
2023-03-24T12:39:27.935Z,25.94
2023-03-24T12:42:18.845Z,25.95
2023-03-24T12:45:23.169Z,25.92
2023-03-24T12:48:35.589Z,25.94
2023-03-24T12:51:30.975Z,25.93
2023-03-24T12:54:38.157Z,25.98
2023-03-24T12:57:30.452Z,26.01
2023-03-24T13:00:23.299Z,25.97
2023-03-24T13:03:16.989Z,25.97
2023-03-24T13:06:17.429Z,25.94
2023-03-24T13:09:19.301Z,25.96
2023-03-24T13:12:18.667Z,25.97
2023-03-24T13:15:16.606Z,25.96
2023-03-24T13:18:16.893Z,25.91
2023-03-24T13:21:09.265Z,25.89
2023-03-24T13:24:00.235Z,25.88
2023-03-24T13:26:55.331Z,25.92
2023-03-24T13:30:19.673Z,25.92
2023-03-24T13:33:14.825Z,25.93
2023-03-24T13:36:15.445Z,25.92
2023-03-24T13:39:10.230Z,25.92
2023-03-24T13:42:00.518Z,25.91
2023-03-24T13:44:51.023Z,25.91
2023-03-24T13:47:54.654Z,25.96
2023-03-24T13:50:55.565Z,25.94
2023-03-24T13:53:47.172Z,25.88
2023-03-24T13:56:37.826Z,25.83
2023-03-24T13:59:30.236Z,25.83
2023-03-24T14:02:47.730Z,25.84
2023-03-24T14:05:46.052Z,25.82
2023-03-24T14:09:02.825Z,25.82
2023-03-24T14:12:09.996Z,25.82
2023-03-24T14:15:15.504Z,25.81
2023-03-24T14:18:18.849Z,25.83
2023-03-24T14:21:09.697Z,25.80
2023-03-24T14:24:04.195Z,25.77
2023-03-24T14:26:53.414Z,25.81
2023-03-24T14:29:43.721Z,25.81
2023-03-24T14:32:39.563Z,25.80
2023-03-24T14:35:34.014Z,25.80
2023-03-24T14:38:24.123Z,25.82
2023-03-24T14:41:17.938Z,25.77
2023-03-24T14:44:07.161Z,25.77
2023-03-24T14:47:00.117Z,25.73
2023-03-24T14:49:50.565Z,25.77
2023-03-24T14:52:43.224Z,25.77
2023-03-24T14:55:32.525Z,25.77
2023-03-24T14:58:24.786Z,25.75
2023-03-24T15:01:13.718Z,25.75
2023-03-24T15:04:05.325Z,25.79
2023-03-24T15:06:54.021Z,25.80
2023-03-24T15:09:50.344Z,25.77
2023-03-24T15:12:40.407Z,25.77
2023-03-24T15:15:30.673Z,25.77
2023-03-24T15:18:22.111Z,25.76
2023-03-24T15:21:18.555Z,25.74
2023-03-24T15:24:30.856Z,25.72
2023-03-24T15:27:23.703Z,25.71
2023-03-24T15:30:15.951Z,25.70
2023-03-24T15:33:06.627Z,25.73
2023-03-24T15:35:57.785Z,25.75
2023-03-24T15:38:47.531Z,25.77
2023-03-24T15:41:36.260Z,25.71
2023-03-24T15:44:27.948Z,25.73
2023-03-24T15:47:20.460Z,25.76
2023-03-24T15:50:34.661Z,25.87
2023-03-24T15:53:26.568Z,25.86
2023-03-24T15:56:19.325Z,25.89
2023-03-24T15:59:16.299Z,25.92
2023-03-24T16:02:09.132Z,25.88
2023-03-24T16:05:10.495Z,25.91
2023-03-24T16:08:04.192Z,25.83
2023-03-24T16:10:58.910Z,25.85
2023-03-24T16:13:48.267Z,25.86
2023-03-24T16:16:39.271Z,25.87
2023-03-24T16:19:28.997Z,25.84
2023-03-24T16:22:18.108Z,25.83
2023-03-24T16:25:10.940Z,25.82
2023-03-24T16:28:00.647Z,25.83
2023-03-24T16:30:53.709Z,25.83
2023-03-24T16:33:42.426Z,25.88
2023-03-24T16:36:30.989Z,25.88
2023-03-24T16:39:20.835Z,25.88
2023-03-24T16:42:11.210Z,25.86
2023-03-24T16:44:59.854Z,25.79
2023-03-24T16:47:48.631Z,25.75
2023-03-24T16:50:38.836Z,25.76
2023-03-24T16:53:27.504Z,25.73
2023-03-24T16:56:18.144Z,25.80
2023-03-24T16:59:09.046Z,25.75
2023-03-24T17:02:05.122Z,25.72
2023-03-24T17:04:54.058Z,25.79
2023-03-24T17:07:42.744Z,25.79
2023-03-24T17:10:31.912Z,25.77
2023-03-24T17:13:22.009Z,25.79
2023-03-24T17:16:13.062Z,25.80
2023-03-24T17:19:02.018Z,25.77
2023-03-24T17:21:52.834Z,25.71
2023-03-24T17:24:42.238Z,25.72
2023-03-24T17:27:30.974Z,25.72
2023-03-24T17:30:22.146Z,25.72
2023-03-24T17:33:15.671Z,25.66
2023-03-24T17:36:04.339Z,25.61
2023-03-24T17:38:52.959Z,25.57
2023-03-24T17:41:44.927Z,25.58
2023-03-24T17:44:34.622Z,25.55
2023-03-24T17:47:23.200Z,25.55
2023-03-24T17:50:14.273Z,25.61
2023-03-24T17:53:02.965Z,25.57
2023-03-24T17:55:52.455Z,25.76
2023-03-24T17:58:41.709Z,25.67
2023-03-24T18:01:30.385Z,25.77
2023-03-24T18:04:20.724Z,25.72
2023-03-24T18:07:10.930Z,25.68
2023-03-24T18:09:59.725Z,25.60
2023-03-24T18:12:48.449Z,25.56
2023-03-24T18:15:38.266Z,25.59
2023-03-24T18:18:27.013Z,25.76
2023-03-24T18:21:15.728Z,25.92
2023-03-24T18:24:06.461Z,25.82
2023-03-24T18:26:55.113Z,25.83
2023-03-24T18:29:43.790Z,25.76
2023-03-24T18:32:36.008Z,25.74
2023-03-24T18:35:25.050Z,25.74
2023-03-24T18:38:15.296Z,25.80
2023-03-24T18:41:07.174Z,25.76
2023-03-24T18:43:56.560Z,25.77
2023-03-24T18:46:45.645Z,25.86
2023-03-24T18:49:34.756Z,25.87
2023-03-24T18:52:23.655Z,25.99
2023-03-24T18:55:12.491Z,26.00
2023-03-24T18:58:02.636Z,26.03
2023-03-24T19:00:53.497Z,25.97
2023-03-24T19:03:44.281Z,25.89
2023-03-24T19:06:35.193Z,25.83
2023-03-24T19:09:24.371Z,25.77
2023-03-24T19:12:16.978Z,25.73
2023-03-24T19:15:08.497Z,25.77
2023-03-24T19:17:58.966Z,25.82
2023-03-24T19:20:50.030Z,25.77
2023-03-24T19:23:38.689Z,25.67
2023-03-24T19:26:27.765Z,25.73
2023-03-24T19:29:16.434Z,25.71
2023-03-24T19:32:06.885Z,25.83
2023-03-24T19:34:57.058Z,25.85
2023-03-24T19:37:45.697Z,25.92
2023-03-24T19:40:38.116Z,25.88
2023-03-24T19:43:27.056Z,26.10
2023-03-24T19:46:16.570Z,26.30
2023-03-24T19:49:06.596Z,26.22
2023-03-24T19:51:55.343Z,26.32
2023-03-24T19:54:44.167Z,26.40
2023-03-24T19:57:33.276Z,26.44
2023-03-24T20:00:22.376Z,26.46
2023-03-24T20:03:11.500Z,26.53
2023-03-24T20:06:08.828Z,26.59
2023-03-24T20:08:57.525Z,26.69
2023-03-24T20:11:47.521Z,26.67
2023-03-24T20:14:36.188Z,26.59
2023-03-24T20:17:26.360Z,26.65
2023-03-24T20:20:15.892Z,26.54
2023-03-24T20:23:06.590Z,26.50
2023-03-24T20:25:55.345Z,26.52
2023-03-24T20:28:44.283Z,26.43
2023-03-24T20:31:33.070Z,26.42
2023-03-24T20:34:21.836Z,26.55
2023-03-24T20:37:11.928Z,26.50
2023-03-24T20:40:03.674Z,26.50
2023-03-24T20:42:52.618Z,26.55
2023-03-24T20:45:41.269Z,26.48
2023-03-24T20:48:30.553Z,26.34
2023-03-24T20:51:19.571Z,26.41
2023-03-24T20:54:08.939Z,26.42
2023-03-24T20:56:59.398Z,26.49
2023-03-24T20:59:49.664Z,26.44
2023-03-24T21:02:39.073Z,26.48
2023-03-24T21:05:29.312Z,26.48
2023-03-24T21:08:17.973Z,26.63
2023-03-24T21:11:10.671Z,26.58
2023-03-24T21:14:03.353Z,26.42
2023-03-24T21:16:52.419Z,26.42
2023-03-24T21:19:46.642Z,26.47
2023-03-24T21:22:47.436Z,26.56
2023-03-24T21:25:40.908Z,26.30
2023-03-24T21:28:31.948Z,26.32
2023-03-24T21:31:25.083Z,26.43
2023-03-24T21:34:13.885Z,26.36
2023-03-24T21:37:02.813Z,26.42
2023-03-24T21:39:51.670Z,26.41
2023-03-24T21:42:41.556Z,26.47
2023-03-24T21:45:32.435Z,26.50
2023-03-24T21:48:22.699Z,26.47
2023-03-24T21:51:14.899Z,26.55
2023-03-24T21:54:06.479Z,26.43
2023-03-24T21:56:55.570Z,26.38
2023-03-24T21:59:44.219Z,26.42
2023-03-24T22:02:34.843Z,26.50
2023-03-24T22:05:27.816Z,26.30
2023-03-24T22:08:22.807Z,26.49
2023-03-24T22:11:15.282Z,26.57
2023-03-24T22:14:04.021Z,26.53
2023-03-24T22:16:53.389Z,26.43
2023-03-24T22:19:42.114Z,26.48
2023-03-24T22:22:34.387Z,26.52
2023-03-24T22:25:24.486Z,26.32
2023-03-24T22:28:13.667Z,26.05
2023-03-24T22:31:03.150Z,25.98
2023-03-24T22:33:52.154Z,25.98
2023-03-24T22:36:41.227Z,26.00
2023-03-24T22:39:31.810Z,26.07
2023-03-24T22:42:20.883Z,25.95
2023-03-24T22:45:10.929Z,25.98
2023-03-24T22:48:00.661Z,26.03
2023-03-24T22:50:49.388Z,25.99
2023-03-24T22:53:38.055Z,26.00
2023-03-24T22:56:28.255Z,26.06
2023-03-24T22:59:16.945Z,26.00
2023-03-24T23:02:09.920Z,25.96
2023-03-24T23:04:59.149Z,25.92
2023-03-24T23:07:48.758Z,25.91
2023-03-24T23:10:38.198Z,25.93
2023-03-24T23:13:30.875Z,25.87
2023-03-24T23:16:20.315Z,25.88
2023-03-24T23:19:09.677Z,25.84
2023-03-24T23:21:58.798Z,25.82
2023-03-24T23:24:48.014Z,25.81
2023-03-24T23:27:37.935Z,25.87
2023-03-24T23:30:28.281Z,25.91
2023-03-24T23:33:17.080Z,25.86
2023-03-24T23:36:06.331Z,25.87
2023-03-24T23:38:55.102Z,25.88
2023-03-24T23:41:43.749Z,25.86
2023-03-24T23:44:32.630Z,25.81
2023-03-24T23:47:23.157Z,25.87
2023-03-24T23:50:12.750Z,25.86
2023-03-24T23:53:01.480Z,25.82
2023-03-24T23:55:56.973Z,25.82
2023-03-24T23:58:45.857Z,25.89
